createdAt,value
2018-03-28T00:01:16.833Z,32.28
2018-03-28T00:03:45.716Z,34.70
2018-03-28T00:06:14.619Z,29.40
2018-03-28T00:08:43.512Z,29.65
2018-03-28T00:11:12.399Z,35.92
2018-03-28T00:13:40.508Z,34.42
2018-03-28T00:16:08.670Z,32.53
2018-03-28T00:18:36.798Z,29.20
2018-03-28T00:21:05.018Z,31.77
2018-03-28T00:23:33.142Z,31.27
2018-03-28T00:26:01.261Z,31.92
2018-03-28T00:28:29.398Z,25.75
2018-03-28T00:30:58.296Z,25.08
2018-03-28T00:33:27.188Z,30.30
2018-03-28T00:35:55.392Z,23.83
2018-03-28T00:38:23.520Z,29.48
2018-03-28T00:40:51.647Z,29.45
2018-03-28T00:43:19.804Z,27.90
2018-03-28T00:45:47.940Z,28.75
2018-03-28T00:48:16.078Z,29.75
2018-03-28T00:50:44.208Z,29.12
2018-03-28T00:53:13.097Z,30.37
2018-03-28T00:55:42.000Z,31.23
2018-03-28T00:58:10.887Z,32.80
2018-03-28T01:00:39.004Z,32.90
2018-03-28T01:03:07.112Z,31.55
2018-03-28T01:05:36.018Z,35.35
2018-03-28T01:08:05.032Z,41.40
2018-03-28T01:10:33.164Z,44.53
2018-03-28T01:13:02.791Z,43.97
2018-03-28T01:15:31.679Z,49.63
2018-03-28T01:18:00.568Z,56.25
2018-03-28T01:20:29.468Z,68.82
2018-03-28T01:22:57.591Z,59.55
2018-03-28T01:25:25.718Z,69.28
2018-03-28T01:27:53.895Z,63.58
2018-03-28T01:30:22.026Z,65.05
2018-03-28T01:32:50.147Z,54.67
2018-03-28T01:35:18.268Z,57.08
2018-03-28T01:37:46.498Z,58.65
2018-03-28T01:40:14.647Z,53.30
2018-03-28T01:42:43.539Z,62.13
2018-03-28T01:45:12.427Z,55.60
2018-03-28T01:47:41.332Z,57.80
2018-03-28T01:50:09.510Z,61.10
2018-03-28T01:52:37.577Z,66.35
2018-03-28T01:55:05.688Z,62.03
2018-03-28T01:57:33.807Z,64.35
2018-03-28T02:00:02.716Z,59.40
2018-03-28T02:02:31.599Z,64.22
2018-03-28T02:04:59.711Z,61.47
2018-03-28T02:07:27.852Z,59.03
2018-03-28T02:09:55.994Z,51.90
2018-03-28T02:12:24.187Z,51.63
2018-03-28T02:14:52.312Z,60.00
2018-03-28T02:17:20.443Z,56.30
2018-03-28T02:19:48.578Z,56.78
2018-03-28T02:22:17.523Z,57.85
2018-03-28T02:24:45.662Z,63.33
2018-03-28T02:27:14.550Z,53.28
2018-03-28T02:29:43.447Z,57.03
2018-03-28T02:32:12.343Z,61.95
2018-03-28T02:34:40.470Z,51.83
2018-03-28T02:37:08.587Z,59.15
2018-03-28T02:39:36.724Z,55.58
2018-03-28T02:42:06.359Z,53.38
2018-03-28T02:44:35.239Z,56.10
2018-03-28T02:47:04.132Z,53.60
2018-03-28T02:49:33.035Z,63.97
2018-03-28T02:52:01.151Z,59.75
2018-03-28T02:54:29.268Z,56.45
2018-03-28T02:56:57.861Z,58.50
2018-03-28T02:59:25.985Z,61.55
2018-03-28T03:01:54.095Z,53.63
2018-03-28T03:04:23.013Z,55.95
2018-03-28T03:06:51.137Z,55.03
2018-03-28T03:09:20.351Z,59.80
2018-03-28T03:11:49.291Z,60.90
2018-03-28T03:14:17.392Z,65.30
2018-03-28T03:16:45.502Z,69.53
2018-03-28T03:19:13.624Z,64.28
2018-03-28T03:21:41.772Z,67.07
2018-03-28T03:24:10.036Z,63.40
2018-03-28T03:26:38.168Z,64.28
2018-03-28T03:29:06.276Z,65.15
2018-03-28T03:31:34.408Z,64.40
2018-03-28T03:34:02.520Z,59.97
2018-03-28T03:36:30.646Z,58.17
2018-03-28T03:38:58.776Z,57.67
2018-03-28T03:41:26.904Z,61.95
2018-03-28T03:43:56.518Z,66.35
2018-03-28T03:46:25.396Z,59.92
2018-03-28T03:48:53.608Z,62.17
2018-03-28T03:51:21.748Z,61.40
2018-03-28T03:53:49.852Z,58.53
2018-03-28T03:56:18.028Z,60.53
2018-03-28T03:58:46.204Z,58.63
2018-03-28T04:01:14.281Z,57.92
2018-03-28T04:03:42.394Z,64.60
2018-03-28T04:06:10.616Z,56.90
2018-03-28T04:08:39.504Z,57.38
2018-03-28T04:11:07.632Z,56.33
2018-03-28T04:13:35.852Z,58.75
2018-03-28T04:16:04.007Z,58.35
2018-03-28T04:18:32.888Z,53.92
2018-03-28T04:21:01.804Z,50.85
2018-03-28T04:23:30.696Z,48.42
2018-03-28T04:25:58.816Z,47.95
2018-03-28T04:28:26.927Z,51.20
2018-03-28T04:30:55.832Z,48.90
2018-03-28T04:33:23.951Z,51.35
2018-03-28T04:35:52.075Z,50.78
2018-03-28T04:38:20.213Z,48.50
2018-03-28T04:40:48.355Z,50.00
2018-03-28T04:43:16.495Z,47.08
2018-03-28T04:45:45.364Z,47.15
2018-03-28T04:48:14.300Z,42.60
2018-03-28T04:50:42.411Z,42.50
2018-03-28T04:53:10.515Z,43.95
2018-03-28T04:55:39.397Z,41.95
2018-03-28T04:58:08.291Z,43.67
2018-03-28T05:00:37.191Z,47.70
2018-03-28T05:03:05.295Z,46.55
2018-03-28T05:05:33.411Z,45.63
2018-03-28T05:08:01.537Z,45.80
2018-03-28T05:10:29.647Z,51.63
2018-03-28T05:12:57.779Z,48.90
2018-03-28T05:15:25.927Z,49.45
2018-03-28T05:17:54.803Z,47.60
2018-03-28T05:20:23.719Z,38.70
2018-03-28T05:22:51.883Z,40.88
2018-03-28T05:25:20.755Z,35.83
2018-03-28T05:27:49.639Z,43.25
2018-03-28T05:30:18.550Z,38.80
2018-03-28T05:32:47.422Z,39.72
2018-03-28T05:35:16.319Z,42.58
2018-03-28T05:37:45.199Z,41.55
2018-03-28T05:40:14.105Z,40.38
2018-03-28T05:42:43.030Z,37.22
2018-03-28T05:45:11.146Z,42.30
2018-03-28T05:47:39.247Z,41.13
2018-03-28T05:50:07.353Z,38.25
2018-03-28T05:52:35.588Z,43.53
2018-03-28T05:55:04.469Z,43.35
2018-03-28T05:57:33.374Z,39.25
2018-03-28T06:00:01.504Z,39.33
2018-03-28T06:02:29.610Z,38.38
2018-03-28T06:04:58.519Z,38.80
2018-03-28T06:07:27.476Z,36.17
2018-03-28T06:09:55.560Z,36.30
2018-03-28T06:12:24.439Z,31.40
2018-03-28T06:14:52.634Z,35.65
2018-03-28T06:17:21.543Z,39.33
2018-03-28T06:19:49.700Z,35.70
2018-03-28T06:22:18.572Z,29.90
2018-03-28T06:24:47.548Z,33.58
2018-03-28T06:27:15.667Z,31.67
2018-03-28T06:29:43.831Z,33.47
2018-03-28T06:32:12.714Z,28.42
2018-03-28T06:34:41.592Z,32.45
2018-03-28T06:37:10.500Z,32.20
2018-03-28T06:39:39.364Z,31.30
2018-03-28T06:42:08.986Z,25.67
2018-03-28T06:44:37.872Z,30.17
2018-03-28T06:47:06.744Z,22.85
2018-03-28T06:49:34.868Z,29.60
2018-03-28T06:52:03.031Z,26.75
2018-03-28T06:54:32.016Z,25.23
2018-03-28T06:57:00.896Z,22.08
2018-03-28T06:59:29.795Z,22.27
2018-03-28T07:01:58.720Z,28.15
2018-03-28T07:04:26.844Z,24.77
2018-03-28T07:06:55.712Z,23.52
2018-03-28T07:09:23.847Z,28.87
2018-03-28T07:11:51.992Z,28.23
2018-03-28T07:14:20.991Z,27.27
2018-03-28T07:16:49.100Z,26.17
2018-03-28T07:19:17.234Z,25.85
2018-03-28T07:21:46.120Z,24.52
2018-03-28T07:24:14.999Z,21.60
2018-03-28T07:26:43.884Z,25.45
2018-03-28T07:29:11.996Z,28.98
2018-03-28T07:31:40.142Z,23.38
2018-03-28T07:34:09.024Z,32.08
2018-03-28T07:36:37.904Z,24.42
2018-03-28T07:39:07.519Z,27.35
2018-03-28T07:41:36.439Z,26.05
2018-03-28T07:44:04.608Z,30.02
2018-03-28T07:46:32.718Z,30.17
2018-03-28T07:49:00.847Z,26.55
2018-03-28T07:51:28.971Z,30.92
2018-03-28T07:53:57.115Z,29.98
2018-03-28T07:56:25.207Z,32.17
2018-03-28T07:58:53.319Z,27.58
2018-03-28T08:01:22.219Z,33.22
2018-03-28T08:03:51.161Z,35.65
2018-03-28T08:06:19.285Z,32.88
2018-03-28T08:08:48.204Z,35.70
2018-03-28T08:11:16.324Z,35.55
2018-03-28T08:13:45.216Z,36.25
2018-03-28T08:16:14.138Z,38.22
2018-03-28T08:18:42.261Z,38.05
2018-03-28T08:21:10.419Z,38.78
2018-03-28T08:23:38.565Z,36.53
2018-03-28T08:26:06.671Z,40.95
2018-03-28T08:28:34.791Z,40.72
2018-03-28T08:31:03.684Z,41.15
2018-03-28T08:33:31.875Z,38.85
2018-03-28T08:35:59.989Z,35.97
2018-03-28T08:38:28.107Z,39.15
2018-03-28T08:40:56.236Z,39.15
2018-03-28T08:43:24.360Z,35.50
2018-03-28T08:45:52.479Z,35.25
2018-03-28T08:48:20.758Z,31.17
2018-03-28T08:50:48.825Z,34.40
2018-03-28T08:53:16.962Z,26.45
2018-03-28T08:55:45.067Z,29.73
2018-03-28T08:58:13.283Z,24.98
2018-03-28T09:00:42.183Z,30.35
2018-03-28T09:03:10.316Z,32.10
2018-03-28T09:05:40.075Z,24.63
2018-03-28T09:08:08.191Z,24.27
2018-03-28T09:10:36.311Z,24.60
2018-03-28T09:13:04.965Z,21.67
2018-03-28T09:15:33.909Z,24.48
2018-03-28T09:18:02.007Z,23.45
2018-03-28T09:20:30.123Z,25.77
2018-03-28T09:22:59.039Z,22.62
2018-03-28T09:25:27.162Z,22.25
2018-03-28T09:27:56.055Z,20.52
2018-03-28T09:30:24.258Z,23.30
2018-03-28T09:32:52.439Z,21.83
2018-03-28T09:35:20.589Z,19.98
2018-03-28T09:37:49.468Z,23.98
2018-03-28T09:40:18.367Z,16.37
2018-03-28T09:42:46.472Z,23.92
2018-03-28T09:45:14.598Z,21.08
2018-03-28T09:47:43.479Z,16.83
2018-03-28T09:50:11.696Z,19.27
2018-03-28T09:52:39.833Z,18.48
2018-03-28T09:55:07.955Z,20.62
2018-03-28T09:57:36.063Z,18.58
2018-03-28T10:00:04.217Z,26.33
2018-03-28T10:02:32.323Z,21.37
2018-03-28T10:05:01.220Z,21.90
2018-03-28T10:07:30.127Z,16.75
2018-03-28T10:09:59.051Z,18.20
2018-03-28T10:12:27.200Z,20.77
2018-03-28T10:14:55.372Z,16.12
2018-03-28T10:17:23.484Z,16.45
2018-03-28T10:19:51.643Z,18.40
2018-03-28T10:22:19.756Z,18.80
2018-03-28T10:24:49.408Z,14.55
2018-03-28T10:27:17.515Z,12.48
2018-03-28T10:29:45.630Z,14.18
2018-03-28T10:32:14.527Z,19.27
2018-03-28T10:34:43.414Z,14.80
2018-03-28T10:37:12.296Z,12.55
2018-03-28T10:39:41.230Z,9.95
2018-03-28T10:42:09.329Z,13.00
2018-03-28T10:44:37.456Z,12.98
2018-03-28T10:47:05.576Z,10.90
2018-03-28T10:49:33.693Z,13.65
2018-03-28T10:52:02.688Z,15.45
2018-03-28T10:54:30.886Z,10.27
2018-03-28T10:56:58.986Z,12.10
2018-03-28T10:59:27.096Z,16.92
2018-03-28T11:01:56.000Z,18.05
2018-03-28T11:04:24.989Z,12.50
2018-03-28T11:06:53.153Z,14.50
2018-03-28T11:09:22.024Z,13.77
2018-03-28T11:11:50.144Z,15.70
2018-03-28T11:14:18.271Z,17.75
2018-03-28T11:16:47.171Z,12.85
2018-03-28T11:19:16.072Z,14.60
2018-03-28T11:21:44.218Z,16.80
2018-03-28T11:24:13.120Z,15.68
2018-03-28T11:26:42.011Z,20.00
2018-03-28T11:29:10.947Z,15.93
2018-03-28T11:31:39.043Z,14.07
2018-03-28T11:34:07.180Z,14.63
2018-03-28T11:36:35.311Z,17.85
2018-03-28T11:39:04.192Z,17.58
2018-03-28T11:41:33.811Z,16.02
2018-03-28T11:44:01.935Z,12.10
2018-03-28T11:46:30.091Z,15.18
2018-03-28T11:48:58.209Z,14.30
2018-03-28T11:51:26.327Z,16.15
2018-03-28T11:53:54.455Z,19.05
2018-03-28T11:56:22.677Z,18.58
2018-03-28T11:58:50.787Z,16.95
2018-03-28T12:01:18.913Z,19.15
2018-03-28T12:03:47.803Z,19.45
2018-03-28T12:06:15.971Z,15.30
2018-03-28T12:08:44.078Z,18.62
2018-03-28T12:11:12.199Z,20.45
2018-03-28T12:13:41.082Z,18.45
2018-03-28T12:16:09.241Z,17.25
2018-03-28T12:18:37.356Z,20.12
2018-03-28T12:21:05.495Z,19.30
2018-03-28T12:23:35.169Z,21.45
2018-03-28T12:26:03.288Z,15.57
2018-03-28T12:28:31.402Z,15.68
2018-03-28T12:30:59.559Z,16.10
2018-03-28T12:33:28.459Z,15.05
2018-03-28T12:35:56.607Z,18.10
2018-03-28T12:38:25.498Z,17.48
2018-03-28T12:40:54.379Z,20.75
2018-03-28T12:43:22.526Z,19.30
2018-03-28T12:45:50.646Z,16.98
2018-03-28T12:48:18.774Z,15.93
2018-03-28T12:50:46.903Z,14.90
2018-03-28T12:53:15.019Z,13.95
2018-03-28T12:55:43.694Z,18.45
2018-03-28T12:58:11.262Z,14.82
2018-03-28T13:00:39.418Z,16.02
2018-03-28T13:03:07.530Z,17.37
2018-03-28T13:05:36.442Z,14.02
2018-03-28T13:08:04.631Z,16.15
2018-03-28T13:10:32.680Z,16.20
2018-03-28T13:13:01.570Z,16.40
2018-03-28T13:15:30.454Z,18.62
2018-03-28T13:17:59.802Z,15.27
2018-03-28T13:20:27.896Z,16.65
2018-03-28T13:22:56.027Z,15.52
2018-03-28T13:25:24.148Z,19.20
2018-03-28T13:27:52.286Z,13.75
2018-03-28T13:30:20.389Z,19.50
2018-03-28T13:32:48.494Z,13.35
2018-03-28T13:35:17.396Z,13.48
2018-03-28T13:37:45.569Z,14.68
2018-03-28T13:40:13.692Z,16.00
2018-03-28T13:42:41.808Z,11.75
2018-03-28T13:45:10.730Z,10.35
2018-03-28T13:47:38.858Z,11.82
2018-03-28T13:50:07.755Z,11.43
2018-03-28T13:52:36.634Z,9.68
2018-03-28T13:55:05.554Z,11.85
2018-03-28T13:57:34.432Z,8.38
2018-03-28T14:00:03.322Z,7.72
2018-03-28T14:02:32.323Z,9.95
2018-03-28T14:05:00.498Z,12.50
2018-03-28T14:07:28.627Z,7.82
2018-03-28T14:09:56.756Z,9.18
2018-03-28T14:12:24.880Z,10.57
2018-03-28T14:14:54.506Z,9.68
2018-03-28T14:17:23.507Z,10.05
2018-03-28T14:19:52.400Z,7.32
2018-03-28T14:22:20.512Z,6.07
2018-03-28T14:24:48.676Z,6.97
2018-03-28T14:27:16.792Z,5.57
2018-03-28T14:29:45.707Z,5.43
2018-03-28T14:32:13.916Z,6.25
2018-03-28T14:34:42.005Z,5.70
2018-03-28T14:37:10.128Z,6.37
2018-03-28T14:42:13.586Z,5.05
2018-03-28T14:44:41.696Z,8.45
2018-03-28T14:47:10.607Z,7.28
2018-03-28T14:49:38.727Z,6.07
2018-03-28T14:52:06.852Z,5.82
2018-03-28T14:54:35.023Z,6.20
2018-03-28T14:57:03.983Z,5.28
2018-03-28T14:59:32.091Z,6.47
2018-03-28T15:02:00.206Z,5.40
2018-03-28T15:04:28.341Z,5.32
2018-03-28T15:06:56.499Z,6.32
2018-03-28T15:09:25.393Z,6.07
2018-03-28T15:11:54.307Z,8.40
2018-03-28T15:14:22.475Z,6.60
2018-03-28T15:16:50.587Z,6.10
2018-03-28T15:19:18.735Z,6.87
2018-03-28T15:21:46.855Z,6.18
2018-03-28T15:24:15.000Z,6.78
2018-03-28T15:26:43.107Z,7.47
2018-03-28T15:29:11.999Z,6.80
2018-03-28T15:31:40.879Z,6.75
2018-03-28T15:34:09.037Z,7.50
2018-03-28T15:36:37.154Z,7.57
2018-03-28T15:39:05.315Z,7.93
2018-03-28T15:41:34.221Z,7.90
2018-03-28T15:44:02.338Z,7.50
2018-03-28T15:46:30.480Z,6.68
2018-03-28T15:48:58.640Z,8.55
2018-03-28T15:51:26.807Z,8.23
2018-03-28T15:53:54.954Z,6.45
2018-03-28T15:56:23.845Z,7.82
2018-03-28T15:58:53.481Z,6.00
2018-03-28T16:01:21.645Z,5.80
2018-03-28T16:03:50.708Z,6.18
2018-03-28T16:06:18.867Z,7.22
2018-03-28T16:08:47.215Z,8.18
2018-03-28T16:11:16.077Z,9.57
2018-03-28T16:13:45.005Z,9.07
2018-03-28T16:16:13.135Z,9.63
2018-03-28T16:18:42.069Z,11.20
2018-03-28T16:21:10.242Z,14.70
2018-03-28T16:23:38.393Z,15.38
2018-03-28T16:26:06.526Z,20.37
2018-03-28T16:28:36.172Z,23.90
2018-03-28T16:31:04.328Z,21.90
2018-03-28T16:33:33.254Z,24.05
2018-03-28T16:36:01.414Z,25.50
2018-03-28T16:38:29.552Z,15.27
2018-03-28T16:40:58.574Z,10.63
2018-03-28T16:43:26.780Z,9.55
2018-03-28T16:45:54.915Z,8.07
2018-03-28T16:48:23.800Z,7.05
2018-03-28T16:50:52.694Z,7.57
2018-03-28T16:53:21.693Z,10.38
2018-03-28T16:55:50.554Z,9.25
2018-03-28T16:58:19.365Z,6.93
2018-03-28T17:00:48.232Z,8.50
2018-03-28T17:03:16.336Z,7.65
2018-03-28T17:05:44.468Z,7.65
2018-03-28T17:08:12.628Z,8.95
2018-03-28T17:10:41.554Z,10.10
2018-03-28T17:13:10.427Z,8.90
2018-03-28T17:15:38.528Z,9.23
2018-03-28T17:18:07.422Z,8.95
2018-03-28T17:20:36.308Z,10.57
2018-03-28T17:23:05.183Z,12.25
2018-03-28T17:25:34.060Z,9.23
2018-03-28T17:28:02.268Z,9.02
2018-03-28T17:30:31.160Z,7.30
2018-03-28T17:32:59.437Z,7.87
2018-03-28T17:35:28.308Z,7.40
2018-03-28T17:37:57.307Z,8.77
2018-03-28T17:40:26.401Z,8.02
2018-03-28T17:42:55.280Z,10.20
2018-03-28T17:45:24.396Z,14.87
2018-03-28T17:47:52.508Z,18.00
2018-03-28T17:50:20.634Z,20.15
2018-03-28T17:52:49.512Z,21.08
2018-03-28T17:55:18.391Z,21.75
2018-03-28T17:57:48.025Z,21.33
2018-03-28T18:00:17.050Z,17.17
2018-03-28T18:02:45.143Z,13.88
2018-03-28T18:05:13.307Z,8.10
2018-03-28T18:07:41.435Z,6.53
2018-03-28T18:10:10.321Z,5.78
2018-03-28T18:12:39.188Z,7.20
2018-03-28T18:15:07.387Z,7.03
2018-03-28T18:17:36.268Z,8.30
2018-03-28T18:20:05.164Z,8.00
2018-03-28T18:22:34.028Z,6.78
2018-03-28T18:25:02.127Z,7.80
2018-03-28T18:27:31.133Z,4.65
2018-03-28T18:30:00.004Z,6.53
2018-03-28T18:32:29.487Z,4.68
2018-03-28T18:34:57.611Z,5.93
2018-03-28T18:37:25.755Z,3.92
2018-03-28T18:39:54.660Z,4.03
2018-03-28T18:42:22.826Z,3.62
2018-03-28T18:44:51.707Z,4.05
2018-03-28T18:47:20.574Z,4.20
2018-03-28T18:49:48.687Z,5.82
2018-03-28T18:52:16.869Z,4.65
2018-03-28T18:54:45.755Z,8.40
2018-03-28T18:57:13.891Z,6.43
2018-03-28T18:59:42.011Z,5.82
2018-03-28T19:02:10.113Z,5.45
2018-03-28T19:04:38.215Z,4.75
2018-03-28T19:07:07.145Z,5.12
2018-03-28T19:09:36.063Z,5.45
2018-03-28T19:12:04.286Z,6.97
2018-03-28T19:14:33.166Z,6.78
2018-03-28T19:17:02.038Z,9.10
2018-03-28T19:19:31.663Z,8.73
2018-03-28T19:22:00.609Z,13.05
2018-03-28T19:24:28.738Z,19.15
2018-03-28T19:26:56.891Z,22.13
2018-03-28T19:29:25.763Z,22.83
2018-03-28T19:31:53.895Z,27.80
2018-03-28T19:34:21.990Z,27.35
2018-03-28T19:36:50.109Z,26.25
2018-03-28T19:39:19.018Z,28.62
2018-03-28T19:41:47.148Z,28.42
2018-03-28T19:44:15.255Z,22.23
2018-03-28T19:46:43.366Z,18.87
2018-03-28T19:49:11.486Z,17.52
2018-03-28T19:51:40.433Z,17.48
2018-03-28T19:54:08.526Z,15.23
2018-03-28T19:56:38.145Z,14.87
2018-03-28T19:59:06.267Z,13.88
2018-03-28T20:01:34.386Z,12.05
2018-03-28T20:04:03.291Z,12.52
2018-03-28T20:06:32.180Z,15.18
2018-03-28T20:09:01.060Z,13.25
2018-03-28T20:11:29.976Z,15.93
2018-03-28T20:13:58.109Z,13.35
2018-03-28T20:16:26.212Z,13.38
2018-03-28T20:18:54.342Z,11.12
2018-03-28T20:21:22.480Z,10.75
2018-03-28T20:23:50.624Z,14.77
2018-03-28T20:26:19.505Z,12.10
2018-03-28T20:28:48.424Z,10.88
2018-03-28T20:31:16.554Z,11.52
2018-03-28T20:33:44.668Z,12.15
2018-03-28T20:36:12.776Z,14.23
2018-03-28T20:38:40.902Z,13.82
2018-03-28T20:41:09.028Z,10.55
2018-03-28T20:43:37.157Z,10.73
2018-03-28T20:46:05.344Z,9.68
2018-03-28T20:48:33.429Z,9.15
2018-03-28T20:51:01.656Z,8.02
2018-03-28T20:53:30.856Z,9.68
2018-03-28T20:55:59.732Z,7.75
2018-03-28T20:58:28.644Z,9.13
2018-03-28T21:00:56.768Z,6.78
2018-03-28T21:03:24.852Z,7.80
2018-03-28T21:05:52.968Z,8.25
2018-03-28T21:08:21.124Z,7.75
2018-03-28T21:10:50.120Z,7.32
2018-03-28T21:13:19.107Z,8.05
2018-03-28T21:15:47.980Z,9.93
2018-03-28T21:18:16.167Z,8.07
2018-03-28T21:20:45.058Z,11.00
2018-03-28T21:23:13.947Z,10.75
2018-03-28T21:25:42.826Z,13.10
2018-03-28T21:28:10.944Z,11.98
2018-03-28T21:30:39.072Z,11.35
2018-03-28T21:33:08.028Z,13.02
2018-03-28T21:35:36.131Z,12.95
2018-03-28T21:38:04.319Z,14.43
2018-03-28T21:40:33.213Z,12.55
2018-03-28T21:43:02.148Z,13.43
2018-03-28T21:45:30.286Z,14.45
2018-03-28T21:47:58.411Z,14.38
2018-03-28T21:50:26.624Z,15.70
2018-03-28T21:52:55.521Z,15.20
2018-03-28T21:55:24.507Z,14.75
2018-03-28T21:57:53.400Z,15.57
2018-03-28T22:00:22.299Z,18.00
2018-03-28T22:02:50.427Z,15.73
2018-03-28T22:05:18.528Z,13.55
2018-03-28T22:07:47.404Z,15.00
2018-03-28T22:10:15.522Z,18.17
2018-03-28T22:12:43.643Z,16.98
2018-03-28T22:15:11.761Z,17.75
2018-03-28T22:17:39.884Z,16.33
2018-03-28T22:20:07.996Z,18.25
2018-03-28T22:22:36.119Z,19.17
2018-03-28T22:25:04.325Z,16.10
2018-03-28T22:27:33.207Z,17.87
2018-03-28T22:30:02.143Z,20.00
2018-03-28T22:32:31.015Z,19.30
2018-03-28T22:34:59.175Z,17.70
2018-03-28T22:37:27.291Z,17.42
2018-03-28T22:39:55.425Z,19.85
2018-03-28T22:42:23.559Z,18.62
2018-03-28T22:44:51.674Z,19.92
2018-03-28T22:47:19.839Z,18.77
2018-03-28T22:49:47.979Z,21.95
2018-03-28T22:52:16.123Z,20.80
2018-03-28T22:54:44.226Z,18.62
2018-03-28T22:57:12.343Z,20.08
2018-03-28T22:59:40.461Z,18.30
2018-03-28T23:02:08.603Z,19.05
2018-03-28T23:04:36.713Z,13.23
2018-03-28T23:07:04.830Z,17.17
2018-03-28T23:09:32.934Z,13.70
2018-03-28T23:12:01.065Z,14.63
2018-03-28T23:14:29.214Z,14.23
2018-03-28T23:16:58.121Z,13.70
2018-03-28T23:19:26.224Z,13.02
2018-03-28T23:21:54.346Z,14.05
2018-03-28T23:24:23.250Z,15.10
2018-03-28T23:26:52.173Z,14.15
2018-03-28T23:29:20.275Z,15.40
2018-03-28T23:31:48.419Z,12.88
2018-03-28T23:34:16.551Z,12.57
2018-03-28T23:36:45.438Z,16.25
2018-03-28T23:39:14.315Z,15.82
2018-03-28T23:41:42.437Z,13.10
2018-03-28T23:44:10.562Z,13.82
2018-03-28T23:46:38.699Z,11.77
2018-03-28T23:49:06.862Z,14.57
2018-03-28T23:51:34.977Z,12.70
2018-03-28T23:54:03.114Z,11.93
2018-03-28T23:56:31.223Z,14.18
2018-03-28T23:58:59.362Z,13.93
